Time;durP1;ratioP1;P1;durP2;ratioP2;P2;SDS_P1;SDS_P2;PMS_P1;PMS_P2;Temp;Humidity;BMP_temperature;BMP_pressure;BME280_temperature;BME280_humidity;BME280_pressure;Samples;Min_cycle;Max_cycle;Signal;HPM_P1;HPM_P2
2022/07/18 00:00:30;;;;;;;2.80;1.70;;;;;;;;;;5056124;28;20401;-73
2022/07/18 00:02:56;;;;;;;5.27;2.27;;;;;;;;;;5055737;28;20443;-73
2022/07/18 00:05:22;;;;;;;3.10;2.00;;;;;;;;;;5056113;28;20819;-73
2022/07/18 00:07:48;;;;;;;3.77;2.37;;;;;;;;;;5055937;28;20404;-74
2022/07/18 00:10:14;;;;;;;6.23;2.20;;;;;;;;;;5055819;28;20439;-73
2022/07/18 00:12:40;;;;;;;9.73;2.27;;;;;;;;;;5055570;28;20422;-73
2022/07/18 00:15:07;;;;;;;6.03;2.50;;;;;;;;;;5056026;28;20488;-72
2022/07/18 00:17:33;;;;;;;4.30;2.17;;;;;;;;;;5055707;28;20495;-73
2022/07/18 00:19:59;;;;;;;3.60;2.00;;;;;;;;;;5055727;28;20444;-73
2022/07/18 00:22:25;;;;;;;6.20;2.43;;;;;;;;;;5055556;28;20739;-73
2022/07/18 00:24:51;;;;;;;3.67;1.90;;;;;;;;;;5055766;28;20467;-72
2022/07/18 00:27:17;;;;;;;5.60;2.37;;;;;;;;;;5055751;28;20437;-72
2022/07/18 00:29:43;;;;;;;2.90;2.07;;;;;;;;;;5055655;28;20445;-73
2022/07/18 00:32:09;;;;;;;3.57;2.20;;;;;;;;;;5055342;28;20383;-73
2022/07/18 00:34:35;;;;;;;3.30;1.70;;;;;;;;;;5055184;28;20399;-72
2022/07/18 00:37:02;;;;;;;3.63;2.20;;;;;;;;;;5055484;28;20413;-73
2022/07/18 00:39:28;;;;;;;9.70;2.60;;;;;;;;;;5055443;28;20409;-73
2022/07/18 00:41:54;;;;;;;1.73;1.60;;;;;;;;;;5055249;28;20387;-72
2022/07/18 00:44:21;;;;;;;3.27;2.17;;;;;;;;;;5054728;28;20407;-72
2022/07/18 00:46:48;;;;;;;4.10;1.60;;;;;;;;;;5055278;28;20460;-72
2022/07/18 00:49:14;;;;;;;2.87;1.90;;;;;;;;;;5055246;28;20380;-72
2022/07/18 00:51:40;;;;;;;3.50;1.90;;;;;;;;;;5055185;28;20414;-73
2022/07/18 00:54:06;;;;;;;4.43;2.17;;;;;;;;;;5054577;28;20428;-73
2022/07/18 00:56:32;;;;;;;2.50;2.10;;;;;;;;;;5054978;28;20485;-72
2022/07/18 00:58:58;;;;;;;4.90;2.10;;;;;;;;;;5054870;28;20877;-72
2022/07/18 01:01:43;;;;;;;3.93;1.67;;;;;;;;;;5054969;28;20420;-73
2022/07/18 01:04:13;;;;;;;3.83;2.10;;;;;;;;;;5054729;28;20830;-73
2022/07/18 01:06:39;;;;;;;5.13;2.10;;;;;;;;;;5053629;28;20447;-73
2022/07/18 01:09:06;;;;;;;4.50;2.03;;;;;;;;;;5054547;28;20486;-73
2022/07/18 01:11:32;;;;;;;8.70;2.20;;;;;;;;;;5054998;28;20420;-73
2022/07/18 01:13:58;;;;;;;3.37;1.77;;;;;;;;;;5054312;28;20754;-73
2022/07/18 01:16:24;;;;;;;3.80;2.10;;;;;;;;;;5054529;28;20392;-73
2022/07/18 01:18:51;;;;;;;4.07;1.73;;;;;;;;;;5054554;28;20387;-73
2022/07/18 01:21:17;;;;;;;4.57;1.83;;;;;;;;;;5054430;28;20439;-73
2022/07/18 01:23:43;;;;;;;4.53;2.47;;;;;;;;;;5054217;28;20506;-73
2022/07/18 01:26:10;;;;;;;10.87;2.70;;;;;;;;;;5054447;28;20427;-74
2022/07/18 01:28:36;;;;;;;6.73;2.87;;;;;;;;;;5054367;28;20542;-73
2022/07/18 01:31:02;;;;;;;2.77;2.10;;;;;;;;;;5054540;28;20476;-73
2022/07/18 01:33:28;;;;;;;2.90;2.07;;;;;;;;;;5054104;28;20899;-73
2022/07/18 01:35:54;;;;;;;3.43;2.10;;;;;;;;;;5054383;28;20437;-73
2022/07/18 01:38:20;;;;;;;6.87;2.70;;;;;;;;;;5054290;28;20421;-73
2022/07/18 01:40:46;;;;;;;3.63;2.43;;;;;;;;;;5054205;28;20417;-73
2022/07/18 01:43:12;;;;;;;6.73;2.27;;;;;;;;;;5053736;28;20436;-73
2022/07/18 01:45:38;;;;;;;3.57;2.40;;;;;;;;;;5054114;28;20442;-73
2022/07/18 01:48:05;;;;;;;4.17;2.40;;;;;;;;;;5053613;28;20384;-72
2022/07/18 01:50:31;;;;;;;5.00;2.63;;;;;;;;;;5053996;28;20750;-73
2022/07/18 01:52:56;;;;;;;7.27;2.80;;;;;;;;;;5053638;28;20424;-72
2022/07/18 01:55:22;;;;;;;2.90;1.93;;;;;;;;;;5054875;28;20442;-72
2022/07/18 01:57:48;;;;;;;3.17;2.20;;;;;;;;;;5055128;28;20437;-73
2022/07/18 02:00:15;;;;;;;4.00;2.30;;;;;;;;;;5054023;28;20441;-73
2022/07/18 02:02:41;;;;;;;5.83;2.30;;;;;;;;;;5053396;28;20391;-73
2022/07/18 02:05:07;;;;;;;6.80;2.57;;;;;;;;;;5053809;28;20461;-73
2022/07/18 02:07:35;;;;;;;20.83;3.10;;;;;;;;;;5053767;28;20409;-73
2022/07/18 02:10:02;;;;;;;4.50;2.47;;;;;;;;;;5053499;28;20457;-73
2022/07/18 02:12:28;;;;;;;5.73;2.90;;;;;;;;;;5053281;28;20412;-73
2022/07/18 02:14:54;;;;;;;7.30;2.67;;;;;;;;;;5053518;28;20384;-73
2022/07/18 02:17:20;;;;;;;4.90;2.53;;;;;;;;;;5053539;28;20409;-73
2022/07/18 02:19:46;;;;;;;4.37;2.40;;;;;;;;;;5053529;28;20391;-73
2022/07/18 02:22:12;;;;;;;3.73;2.40;;;;;;;;;;5053672;28;20375;-73
2022/07/18 02:24:38;;;;;;;8.53;2.50;;;;;;;;;;5053120;28;20950;-73
2022/07/18 02:27:04;;;;;;;3.23;2.17;;;;;;;;;;5053331;28;20405;-73
2022/07/18 02:29:30;;;;;;;5.40;2.70;;;;;;;;;;5053450;28;20383;-73
2022/07/18 02:31:57;;;;;;;6.10;2.47;;;;;;;;;;5053234;28;20770;-73
2022/07/18 02:34:23;;;;;;;3.57;2.40;;;;;;;;;;5052915;28;20475;-73
2022/07/18 02:36:50;;;;;;;5.90;2.50;;;;;;;;;;5053359;28;20947;-73
2022/07/18 02:39:16;;;;;;;13.20;2.30;;;;;;;;;;5053172;28;20414;-73
2022/07/18 02:41:42;;;;;;;4.60;2.23;;;;;;;;;;5053092;28;20443;-73
2022/07/18 02:44:08;;;;;;;5.30;2.50;;;;;;;;;;5052634;28;20434;-73
2022/07/18 02:46:35;;;;;;;6.67;2.50;;;;;;;;;;5052969;28;20435;-73
2022/07/18 02:49:01;;;;;;;4.40;2.30;;;;;;;;;;5052926;28;20438;-73
2022/07/18 02:51:27;;;;;;;3.87;2.30;;;;;;;;;;5051733;28;20857;-73
2022/07/18 02:53:53;;;;;;;4.83;2.10;;;;;;;;;;5052584;28;20809;-73
2022/07/18 02:56:19;;;;;;;7.70;2.30;;;;;;;;;;5052960;28;20422;-73
2022/07/18 02:58:45;;;;;;;4.60;2.13;;;;;;;;;;5052368;28;20517;-73
2022/07/18 03:01:11;;;;;;;4.23;2.30;;;;;;;;;;5052508;28;20518;-73
2022/07/18 03:03:37;;;;;;;3.53;2.23;;;;;;;;;;5052429;28;20443;-73
2022/07/18 03:06:03;;;;;;;4.97;2.47;;;;;;;;;;5052728;28;20463;-72
2022/07/18 03:08:29;;;;;;;4.10;2.47;;;;;;;;;;5052627;28;20396;-73
2022/07/18 03:10:55;;;;;;;2.90;2.03;;;;;;;;;;5052840;28;20428;-73
2022/07/18 03:13:21;;;;;;;3.00;2.50;;;;;;;;;;5052307;28;20490;-73
2022/07/18 03:15:47;;;;;;;3.13;2.10;;;;;;;;;;5052735;28;20416;-73
2022/07/18 03:18:13;;;;;;;3.90;2.17;;;;;;;;;;5052667;28;20445;-73
2022/07/18 03:20:39;;;;;;;3.53;2.70;;;;;;;;;;5052638;28;20804;-73
2022/07/18 03:23:06;;;;;;;4.43;2.60;;;;;;;;;;5052144;28;20415;-73
2022/07/18 03:25:32;;;;;;;3.37;2.40;;;;;;;;;;5052253;28;20864;-73
2022/07/18 03:27:58;;;;;;;2.90;2.60;;;;;;;;;;5052528;28;20459;-73
2022/07/18 03:30:24;;;;;;;3.30;2.27;;;;;;;;;;5052337;28;20413;-73
2022/07/18 03:32:50;;;;;;;4.60;2.20;;;;;;;;;;5052253;28;20871;-73
2022/07/18 03:35:17;;;;;;;5.93;2.03;;;;;;;;;;5052404;28;20412;-72
2022/07/18 03:37:43;;;;;;;3.07;2.10;;;;;;;;;;5052356;28;20419;-73
2022/07/18 03:40:09;;;;;;;4.20;2.73;;;;;;;;;;5052500;28;20396;-73
2022/07/18 03:42:41;;;;;;;5.30;2.37;;;;;;;;;;5052148;28;20424;-74
2022/07/18 03:45:08;;;;;;;9.70;2.87;;;;;;;;;;5052062;28;20439;-73
2022/07/18 03:47:34;;;;;;;7.70;2.40;;;;;;;;;;5052111;28;20486;-74
2022/07/18 03:50:00;;;;;;;4.10;2.50;;;;;;;;;;5052355;28;20409;-73
2022/07/18 03:52:26;;;;;;;5.93;2.40;;;;;;;;;;5052069;28;20992;-73
2022/07/18 03:54:52;;;;;;;2.93;2.60;;;;;;;;;;5052239;28;20391;-73
2022/07/18 03:57:18;;;;;;;5.43;2.60;;;;;;;;;;5052046;28;20417;-73
2022/07/18 03:59:44;;;;;;;4.73;3.30;;;;;;;;;;5052150;28;20470;-73
2022/07/18 04:02:10;;;;;;;3.70;2.37;;;;;;;;;;5051050;28;20725;-73
2022/07/18 04:04:36;;;;;;;4.87;2.77;;;;;;;;;;5051894;28;20508;-73
2022/07/18 04:07:03;;;;;;;5.63;2.50;;;;;;;;;;5052560;28;20383;-73
2022/07/18 04:09:29;;;;;;;6.73;2.70;;;;;;;;;;5052026;28;20418;-74
2022/07/18 04:11:55;;;;;;;6.73;3.00;;;;;;;;;;5055200;28;20375;-73
2022/07/18 04:14:22;;;;;;;4.00;2.70;;;;;;;;;;5055564;28;20432;-73
2022/07/18 04:16:48;;;;;;;5.03;3.00;;;;;;;;;;5055928;28;20387;-73
2022/07/18 04:19:14;;;;;;;5.00;2.80;;;;;;;;;;5055913;28;20505;-73
2022/07/18 04:21:40;;;;;;;4.30;2.43;;;;;;;;;;5055632;28;20420;-73
2022/07/18 04:24:06;;;;;;;5.97;2.80;;;;;;;;;;5055358;28;20403;-73
2022/07/18 04:26:32;;;;;;;4.90;2.77;;;;;;;;;;5055707;28;20467;-73
2022/07/18 04:28:58;;;;;;;3.63;2.30;;;;;;;;;;5055627;28;20416;-73
2022/07/18 04:31:24;;;;;;;7.80;3.10;;;;;;;;;;5055706;28;20927;-73
2022/07/18 04:33:50;;;;;;;8.53;3.07;;;;;;;;;;5053912;28;20453;-74
2022/07/18 04:36:18;;;;;;;3.47;2.40;;;;;;;;;;5055505;28;20520;-73
2022/07/18 04:38:44;;;;;;;4.10;2.50;;;;;;;;;;5054155;28;20399;-73
2022/07/18 04:41:10;;;;;;;5.83;2.80;;;;;;;;;;5055435;28;20746;-73
2022/07/18 04:43:36;;;;;;;3.10;2.60;;;;;;;;;;5054975;28;20746;-73
2022/07/18 04:46:02;;;;;;;4.20;2.77;;;;;;;;;;5053755;28;20446;-73
2022/07/18 04:48:29;;;;;;;7.60;2.50;;;;;;;;;;5055277;28;20398;-73
2022/07/18 04:50:55;;;;;;;3.73;2.60;;;;;;;;;;5054023;28;20804;-73
2022/07/18 04:53:21;;;;;;;2.70;2.10;;;;;;;;;;5054726;28;20403;-74
2022/07/18 04:55:47;;;;;;;3.70;2.50;;;;;;;;;;5055000;28;20813;-73
2022/07/18 04:58:13;;;;;;;4.43;2.60;;;;;;;;;;5054868;28;20416;-73
2022/07/18 05:00:39;;;;;;;3.30;1.97;;;;;;;;;;5053666;28;20423;-73
2022/07/18 05:03:05;;;;;;;4.60;2.50;;;;;;;;;;5054815;28;20443;-73
2022/07/18 05:05:31;;;;;;;4.03;2.60;;;;;;;;;;5054902;28;20755;-73
2022/07/18 05:07:57;;;;;;;3.47;2.03;;;;;;;;;;5053620;28;20417;-73
2022/07/18 05:10:23;;;;;;;3.93;2.30;;;;;;;;;;5053475;28;20986;-73
2022/07/18 05:12:50;;;;;;;6.00;2.20;;;;;;;;;;5055799;28;20440;-73
2022/07/18 05:15:17;;;;;;;6.07;2.63;;;;;;;;;;5054898;28;20394;-73
2022/07/18 05:17:44;;;;;;;3.00;2.30;;;;;;;;;;5054874;28;20409;-73
2022/07/18 05:20:11;;;;;;;4.63;1.70;;;;;;;;;;5054779;28;20771;-73
2022/07/18 05:22:37;;;;;;;3.47;1.73;;;;;;;;;;5053505;28;20779;-73
2022/07/18 05:25:04;;;;;;;4.93;2.50;;;;;;;;;;5054617;28;20435;-73
2022/07/18 05:27:30;;;;;;;3.60;2.00;;;;;;;;;;5054726;28;20713;-73
2022/07/18 05:29:58;;;;;;;4.03;1.80;;;;;;;;;;5054744;28;20408;-73
2022/07/18 05:32:24;;;;;;;3.33;1.83;;;;;;;;;;5053822;28;20418;-74
2022/07/18 05:34:50;;;;;;;2.50;1.60;;;;;;;;;;5054535;28;20380;-73
2022/07/18 05:37:16;;;;;;;3.67;2.17;;;;;;;;;;5054459;28;20410;-73
2022/07/18 05:39:42;;;;;;;4.57;1.67;;;;;;;;;;5054400;28;20384;-73
2022/07/18 05:42:08;;;;;;;4.80;2.03;;;;;;;;;;5054095;28;20398;-73
2022/07/18 05:44:34;;;;;;;2.60;2.20;;;;;;;;;;5052604;28;20792;-73
2022/07/18 05:47:00;;;;;;;3.23;2.00;;;;;;;;;;5054171;28;20447;-73
2022/07/18 05:49:26;;;;;;;5.37;1.70;;;;;;;;;;5054064;28;20844;-73
2022/07/18 05:51:52;;;;;;;6.30;1.93;;;;;;;;;;5053810;28;20390;-73
2022/07/18 05:54:19;;;;;;;3.43;2.10;;;;;;;;;;5051928;28;20801;-73
2022/07/18 05:56:51;;;;;;;7.73;2.40;;;;;;;;;;5053671;28;20416;-73
2022/07/18 05:59:17;;;;;;;3.90;1.70;;;;;;;;;;5053792;28;20504;-73
2022/07/18 06:01:43;;;;;;;7.00;2.53;;;;;;;;;;5053660;28;20821;-73
2022/07/18 06:04:10;;;;;;;6.80;2.40;;;;;;;;;;5053240;28;20435;-73
2022/07/18 06:06:36;;;;;;;4.53;2.17;;;;;;;;;;5053351;28;20906;-74
2022/07/18 06:09:02;;;;;;;6.83;2.47;;;;;;;;;;5053516;28;20409;-73
2022/07/18 06:11:29;;;;;;;7.03;2.77;;;;;;;;;;5052503;28;20398;-73
2022/07/18 06:13:55;;;;;;;7.87;2.53;;;;;;;;;;5053460;28;20904;-73
2022/07/18 06:16:21;;;;;;;3.50;1.90;;;;;;;;;;5053567;28;20388;-74
2022/07/18 06:18:47;;;;;;;4.73;2.27;;;;;;;;;;5053454;28;20402;-73
2022/07/18 06:21:13;;;;;;;5.00;2.17;;;;;;;;;;5053426;28;20922;-73
2022/07/18 06:23:40;;;;;;;6.63;2.30;;;;;;;;;;5053049;28;20424;-73
2022/07/18 06:26:06;;;;;;;9.93;2.90;;;;;;;;;;5053482;28;20814;-73
2022/07/18 06:28:32;;;;;;;8.20;2.87;;;;;;;;;;5053370;28;20414;-74
2022/07/18 06:30:58;;;;;;;7.27;2.87;;;;;;;;;;5051817;28;20421;-74
2022/07/18 06:33:24;;;;;;;6.43;2.47;;;;;;;;;;5052969;28;20831;-73
2022/07/18 06:35:50;;;;;;;4.70;2.13;;;;;;;;;;5053218;28;20758;-73
2022/07/18 06:38:17;;;;;;;7.87;2.37;;;;;;;;;;5053572;28;20881;-73
2022/07/18 06:40:44;;;;;;;5.30;2.60;;;;;;;;;;5053116;28;20415;-73
2022/07/18 06:43:10;;;;;;;7.83;2.17;;;;;;;;;;5052909;28;20404;-73
2022/07/18 06:45:36;;;;;;;4.83;2.07;;;;;;;;;;5051896;28;20584;-73
2022/07/18 06:48:02;;;;;;;8.40;2.73;;;;;;;;;;5053312;28;20407;-73
2022/07/18 06:50:29;;;;;;;8.20;2.40;;;;;;;;;;5053050;28;20494;-73
2022/07/18 06:52:55;;;;;;;8.43;2.40;;;;;;;;;;5051600;28;20404;-72
2022/07/18 06:55:21;;;;;;;3.63;2.13;;;;;;;;;;5053259;28;20469;-73
2022/07/18 06:57:47;;;;;;;6.10;2.20;;;;;;;;;;5052978;28;20482;-73
2022/07/18 07:00:14;;;;;;;6.60;2.33;;;;;;;;;;5052876;28;20456;-73
2022/07/18 07:02:41;;;;;;;5.30;1.80;;;;;;;;;;5051022;28;20454;-74
2022/07/18 07:05:07;;;;;;;5.53;2.47;;;;;;;;;;5052590;28;20472;-73
2022/07/18 07:07:33;;;;;;;5.00;2.47;;;;;;;;;;5052874;28;20490;-73
2022/07/18 07:09:59;;;;;;;5.10;2.00;;;;;;;;;;5052707;28;20491;-73
2022/07/18 07:12:25;;;;;;;3.23;1.97;;;;;;;;;;5052363;28;20421;-75
2022/07/18 07:14:51;;;;;;;5.60;2.43;;;;;;;;;;5051588;28;20532;-75
2022/07/18 07:17:18;;;;;;;5.47;2.10;;;;;;;;;;5051411;28;20841;-75
2022/07/18 07:19:44;;;;;;;3.53;2.00;;;;;;;;;;5052692;28;20427;-73
2022/07/18 07:22:10;;;;;;;6.13;2.30;;;;;;;;;;5051286;28;20507;-73
2022/07/18 07:24:38;;;;;;;4.13;1.80;;;;;;;;;;5052325;28;20421;-73
2022/07/18 07:27:04;;;;;;;4.37;1.40;;;;;;;;;;5052577;28;20391;-72
2022/07/18 07:29:30;;;;;;;4.13;1.50;;;;;;;;;;5052461;28;20439;-73
2022/07/18 07:31:56;;;;;;;2.10;1.90;;;;;;;;;;5052117;28;20491;-73
2022/07/18 07:34:22;;;;;;;3.13;1.63;;;;;;;;;;5050769;28;20507;-73
2022/07/18 07:36:48;;;;;;;3.37;1.60;;;;;;;;;;5051422;28;20783;-72
2022/07/18 07:39:14;;;;;;;3.20;1.70;;;;;;;;;;5051033;28;20444;-72
2022/07/18 07:41:40;;;;;;;3.47;1.43;;;;;;;;;;5052456;28;20452;-73
2022/07/18 07:44:06;;;;;;;2.37;1.60;;;;;;;;;;5034355;28;20434;-73
2022/07/18 07:46:32;;;;;;;5.57;1.80;;;;;;;;;;5054984;28;20830;-73
2022/07/18 07:48:58;;;;;;;3.40;1.67;;;;;;;;;;5056486;28;20417;-72
2022/07/18 07:51:24;;;;;;;4.27;1.90;;;;;;;;;;5056230;28;20443;-72
2022/07/18 07:53:50;;;;;;;3.73;1.70;;;;;;;;;;5055490;28;20498;-72
2022/07/18 07:56:18;;;;;;;5.27;2.03;;;;;;;;;;5038657;28;20495;-73
2022/07/18 07:58:45;;;;;;;4.40;1.70;;;;;;;;;;5056261;28;20400;-73
2022/07/18 08:01:11;;;;;;;7.00;1.73;;;;;;;;;;5054772;28;20439;-73
2022/07/18 08:03:38;;;;;;;5.93;1.90;;;;;;;;;;5055582;28;20463;-74
2022/07/18 08:06:04;;;;;;;6.00;1.90;;;;;;;;;;5054641;28;20474;-73
2022/07/18 08:08:30;;;;;;;7.10;2.00;;;;;;;;;;5055780;28;20424;-73
2022/07/18 08:10:56;;;;;;;3.70;1.70;;;;;;;;;;5055979;28;20405;-73
2022/07/18 08:13:22;;;;;;;4.87;1.97;;;;;;;;;;5055075;28;20439;-73
2022/07/18 08:15:48;;;;;;;11.40;2.37;;;;;;;;;;5055853;28;20732;-73
2022/07/18 08:18:14;;;;;;;3.53;1.83;;;;;;;;;;5055880;28;20819;-73
2022/07/18 08:20:40;;;;;;;3.87;1.70;;;;;;;;;;5055887;28;20436;-73
2022/07/18 08:23:07;;;;;;;7.77;2.60;;;;;;;;;;5055492;28;20444;-74
2022/07/18 08:25:35;;;;;;;4.17;1.90;;;;;;;;;;5055639;28;20460;-74
2022/07/18 08:28:02;;;;;;;7.40;2.07;;;;;;;;;;5055693;28;20412;-73
2022/07/18 08:30:28;;;;;;;2.70;1.50;;;;;;;;;;5055389;28;20443;-74
2022/07/18 08:32:54;;;;;;;4.43;1.93;;;;;;;;;;5055362;28;20432;-73
2022/07/18 08:35:20;;;;;;;8.93;2.70;;;;;;;;;;5055048;28;20448;-74
2022/07/18 08:37:46;;;;;;;7.43;2.07;;;;;;;;;;5047182;28;20544;-73
2022/07/18 08:40:12;;;;;;;3.10;1.70;;;;;;;;;;5035239;28;20503;-73
2022/07/18 08:42:39;;;;;;;5.13;1.90;;;;;;;;;;5035274;28;20750;-73
2022/07/18 08:45:05;;;;;;;7.30;2.40;;;;;;;;;;5035139;28;20472;-73
2022/07/18 08:47:32;;;;;;;4.00;1.60;;;;;;;;;;5053706;28;20435;-73
2022/07/18 08:49:59;;;;;;;7.30;2.20;;;;;;;;;;5049383;28;20795;-74
2022/07/18 08:52:25;;;;;;;2.73;1.37;;;;;;;;;;5043159;28;20498;-74
2022/07/18 08:54:51;;;;;;;4.73;1.70;;;;;;;;;;5054464;28;20409;-73
2022/07/18 08:57:17;;;;;;;5.23;1.83;;;;;;;;;;5053378;28;20443;-73
2022/07/18 08:59:43;;;;;;;2.23;1.63;;;;;;;;;;5051591;28;20417;-73
2022/07/18 09:02:10;;;;;;;2.27;1.30;;;;;;;;;;5054472;28;20417;-73
2022/07/18 09:04:40;;;;;;;3.60;1.40;;;;;;;;;;5054365;28;20830;-73
2022/07/18 09:07:08;;;;;;;3.77;1.50;;;;;;;;;;5052498;28;20471;-74
2022/07/18 09:09:34;;;;;;;5.60;1.80;;;;;;;;;;5054693;28;20782;-74
2022/07/18 09:12:02;;;;;;;4.17;1.70;;;;;;;;;;5053138;28;20408;-74
2022/07/18 09:14:29;;;;;;;3.53;1.67;;;;;;;;;;5053190;28;20432;-73
2022/07/18 09:17:06;;;;;;;4.80;1.63;;;;;;;;;;5054882;28;20444;-73
2022/07/18 09:19:32;;;;;;;2.10;1.40;;;;;;;;;;5054740;28;20404;-73
2022/07/18 09:22:13;;;;;;;4.23;1.60;;;;;;;;;;5054490;28;20499;-74
2022/07/18 09:24:49;;;;;;;7.00;1.37;;;;;;;;;;5054535;28;20467;-73
2022/07/18 09:27:51;;;;;;;2.33;1.47;;;;;;;;;;5054804;28;20940;-74
2022/07/18 09:30:25;;;;;;;5.57;1.60;;;;;;;;;;5012815;28;20448;-74
2022/07/18 09:32:52;;;;;;;4.67;1.40;;;;;;;;;;5047822;28;20435;-73
2022/07/18 09:35:28;;;;;;;3.70;1.63;;;;;;;;;;5054425;28;20404;-74
2022/07/18 09:37:55;;;;;;;1.70;1.20;;;;;;;;;;5054459;28;20453;-75
2022/07/18 09:40:25;;;;;;;1.90;1.40;;;;;;;;;;5054249;28;20419;-76
2022/07/18 09:42:53;;;;;;;2.80;1.57;;;;;;;;;;5052584;28;20490;-73
2022/07/18 09:45:26;;;;;;;3.33;1.43;;;;;;;;;;5054006;28;20551;-76
2022/07/18 09:47:54;;;;;;;2.13;1.40;;;;;;;;;;5054311;28;20404;-76
2022/07/18 09:50:28;;;;;;;2.17;1.47;;;;;;;;;;5053537;28;20506;-76
2022/07/18 09:53:09;;;;;;;4.07;1.70;;;;;;;;;;5051906;28;20463;-76
2022/07/18 09:55:35;;;;;;;2.80;1.40;;;;;;;;;;5054049;28;20420;-74
2022/07/18 09:58:08;;;;;;;3.80;1.47;;;;;;;;;;5053954;28;20416;-73
2022/07/18 10:00:38;;;;;;;2.00;1.10;;;;;;;;;;5053805;28;20503;-74
2022/07/18 10:03:06;;;;;;;5.20;1.43;;;;;;;;;;5051948;28;20436;-75
2022/07/18 10:05:34;;;;;;;2.27;1.33;;;;;;;;;;5051940;28;20558;-74
2022/07/18 10:08:01;;;;;;;4.70;1.37;;;;;;;;;;5053143;28;20404;-74
2022/07/18 10:10:28;;;;;;;4.37;1.50;;;;;;;;;;5053463;28;20431;-75
2022/07/18 10:12:55;;;;;;;2.33;1.30;;;;;;;;;;5053583;28;20905;-75
2022/07/18 10:15:23;;;;;;;6.67;1.43;;;;;;;;;;5053928;28;20469;-74
2022/07/18 10:17:49;;;;;;;3.50;1.47;;;;;;;;;;5053850;28;20704;-74
2022/07/18 10:20:15;;;;;;;5.13;1.90;;;;;;;;;;5053296;28;20965;-75
2022/07/18 10:22:42;;;;;;;2.33;1.40;;;;;;;;;;5053175;28;20463;-75
2022/07/18 10:25:10;;;;;;;5.93;1.83;;;;;;;;;;5053226;28;20856;-73
2022/07/18 10:27:49;;;;;;;3.20;1.60;;;;;;;;;;5053181;28;20416;-75
2022/07/18 10:30:17;;;;;;;2.80;1.30;;;;;;;;;;5054277;28;20412;-75
2022/07/18 10:32:43;;;;;;;3.70;1.20;;;;;;;;;;5054067;28;20800;-74
2022/07/18 10:35:13;;;;;;;3.00;1.63;;;;;;;;;;5053129;28;20908;-74
2022/07/18 10:37:40;;;;;;;2.13;1.50;;;;;;;;;;5048851;28;20408;-74
2022/07/18 10:40:27;;;;;;;4.37;1.60;;;;;;;;;;5033399;28;20745;-74
2022/07/18 10:43:12;;;;;;;3.57;1.50;;;;;;;;;;5033232;28;20512;-76
2022/07/18 10:45:45;;;;;;;3.50;1.60;;;;;;;;;;5038035;28;20481;-74
2022/07/18 10:48:30;;;;;;;1.97;1.33;;;;;;;;;;5050577;28;20524;-75
2022/07/18 10:51:02;;;;;;;5.17;1.30;;;;;;;;;;5051356;28;20500;-75
2022/07/18 10:53:47;;;;;;;3.50;1.30;;;;;;;;;;5049813;28;20439;-74
2022/07/18 10:56:13;;;;;;;1.97;1.70;;;;;;;;;;5053410;28;20408;-75
2022/07/18 10:58:40;;;;;;;3.30;1.47;;;;;;;;;;5053055;28;20470;-75
2022/07/18 11:01:10;;;;;;;1.43;1.30;;;;;;;;;;5053173;28;20408;-74
2022/07/18 11:03:36;;;;;;;3.73;1.40;;;;;;;;;;5052662;28;20978;-74
2022/07/18 11:06:02;;;;;;;7.93;1.67;;;;;;;;;;5052569;28;20463;-75
2022/07/18 11:08:31;;;;;;;4.13;1.90;;;;;;;;;;5052653;28;20446;-75
2022/07/18 11:11:03;;;;;;;3.23;1.10;;;;;;;;;;5051686;28;20412;-75
2022/07/18 11:13:31;;;;;;;5.03;2.00;;;;;;;;;;5052372;28;20483;-75
2022/07/18 11:16:06;;;;;;;6.33;1.30;;;;;;;;;;5051951;28;20473;-76
2022/07/18 11:18:33;;;;;;;4.00;1.30;;;;;;;;;;5055248;28;20440;-75
2022/07/18 11:20:59;;;;;;;2.40;1.80;;;;;;;;;;5051789;28;20434;-75
2022/07/18 11:23:26;;;;;;;3.00;1.73;;;;;;;;;;5052243;28;20435;-75
2022/07/18 11:25:57;;;;;;;3.83;1.50;;;;;;;;;;5052356;28;20471;-76
2022/07/18 11:28:23;;;;;;;6.30;1.67;;;;;;;;;;5052473;28;20490;-76
2022/07/18 11:31:08;;;;;;;3.00;1.33;;;;;;;;;;5052277;28;20503;-75
2022/07/18 11:33:36;;;;;;;3.47;1.57;;;;;;;;;;5052138;28;20463;-76
2022/07/18 11:36:03;;;;;;;1.70;1.20;;;;;;;;;;5052199;28;20408;-75
2022/07/18 11:38:29;;;;;;;7.50;1.93;;;;;;;;;;5052541;28;20423;-75
2022/07/18 11:40:55;;;;;;;2.00;1.20;;;;;;;;;;5052176;28;20969;-75
2022/07/18 11:43:22;;;;;;;5.00;1.67;;;;;;;;;;5036050;28;20547;-75
2022/07/18 11:45:48;;;;;;;3.30;1.83;;;;;;;;;;5032380;28;20509;-75
2022/07/18 11:48:22;;;;;;;2.83;1.50;;;;;;;;;;5032436;28;20436;-76
2022/07/18 11:50:48;;;;;;;2.70;1.50;;;;;;;;;;5032328;28;20394;-75
2022/07/18 11:53:15;;;;;;;1.80;1.57;;;;;;;;;;5031727;28;20455;-77
2022/07/18 11:55:41;;;;;;;1.30;1.20;;;;;;;;;;5032039;28;20504;-76
2022/07/18 11:58:14;;;;;;;3.10;1.53;;;;;;;;;;5031663;28;20452;-75
2022/07/18 12:00:41;;;;;;;2.87;1.70;;;;;;;;;;5032001;28;20769;-75
2022/07/18 12:03:07;;;;;;;4.37;1.30;;;;;;;;;;5031671;28;20519;-76
2022/07/18 12:05:34;;;;;;;10.53;1.60;;;;;;;;;;5031800;28;20826;-75
2022/07/18 12:08:00;;;;;;;6.30;1.80;;;;;;;;;;5031789;28;20413;-77
2022/07/18 12:10:26;;;;;;;1.70;1.40;;;;;;;;;;5032185;28;20425;-75
2022/07/18 12:12:53;;;;;;;2.93;1.57;;;;;;;;;;5031747;28;20460;-75
2022/07/18 12:15:19;;;;;;;3.47;1.57;;;;;;;;;;5039124;28;20577;-76
2022/07/18 12:17:46;;;;;;;4.20;1.67;;;;;;;;;;5048659;28;20535;-75
2022/07/18 12:20:13;;;;;;;3.13;1.10;;;;;;;;;;5050399;28;20457;-76
2022/07/18 12:22:59;;;;;;;4.30;1.20;;;;;;;;;;5049940;28;20442;-75
2022/07/18 12:25:37;;;;;;;1.60;1.50;;;;;;;;;;5050241;28;20571;-75
2022/07/18 12:28:21;;;;;;;3.67;1.40;;;;;;;;;;5050707;28;20446;-75
2022/07/18 12:30:47;;;;;;;2.23;1.43;;;;;;;;;;5050020;28;20416;-75
2022/07/18 12:33:14;;;;;;;3.20;1.70;;;;;;;;;;5053105;28;20432;-76
2022/07/18 12:35:40;;;;;;;5.30;1.40;;;;;;;;;;5054414;28;20824;-74
2022/07/18 12:38:17;;;;;;;2.20;1.70;;;;;;;;;;5053293;28;20473;-76
2022/07/18 12:40:45;;;;;;;3.20;1.47;;;;;;;;;;5053724;28;21138;-75
2022/07/18 12:43:13;;;;;;;2.80;1.57;;;;;;;;;;5053141;28;20510;-75
2022/07/18 12:45:39;;;;;;;3.10;1.40;;;;;;;;;;5053076;28;20460;-76
2022/07/18 12:48:07;;;;;;;4.47;1.77;;;;;;;;;;5053775;28;20438;-75
2022/07/18 12:50:33;;;;;;;2.50;1.37;;;;;;;;;;5054193;28;20839;-75
2022/07/18 12:52:59;;;;;;;4.63;1.73;;;;;;;;;;5052421;28;20967;-75
2022/07/18 12:55:25;;;;;;;9.70;1.77;;;;;;;;;;5053675;28;20534;-76
2022/07/18 12:57:52;;;;;;;3.17;1.30;;;;;;;;;;5053476;28;20482;-77
2022/07/18 13:00:18;;;;;;;5.10;1.40;;;;;;;;;;5053119;28;20432;-76
2022/07/18 13:02:44;;;;;;;3.53;1.67;;;;;;;;;;5053210;28;20455;-76
2022/07/18 13:05:10;;;;;;;4.70;1.90;;;;;;;;;;5053293;28;20439;-77
2022/07/18 13:07:36;;;;;;;1.63;1.53;;;;;;;;;;5052721;28;20509;-76
2022/07/18 13:10:03;;;;;;;3.23;1.30;;;;;;;;;;5053228;28;20800;-76
2022/07/18 13:12:29;;;;;;;4.97;1.70;;;;;;;;;;5052721;28;20420;-76
2022/07/18 13:14:55;;;;;;;7.50;1.60;;;;;;;;;;5052304;28;20459;-75
2022/07/18 13:17:21;;;;;;;1.50;1.10;;;;;;;;;;5051995;28;20427;-75
2022/07/18 13:19:49;;;;;;;3.47;1.80;;;;;;;;;;5052556;28;20952;-76
2022/07/18 13:22:15;;;;;;;4.77;2.30;;;;;;;;;;5054050;28;20435;-76
2022/07/18 13:24:41;;;;;;;10.20;1.80;;;;;;;;;;5053287;28;20440;-76
2022/07/18 13:27:06;;;;;;;3.37;1.63;;;;;;;;;;5053571;28;20956;-76
2022/07/18 13:29:33;;;;;;;4.90;1.57;;;;;;;;;;5052328;28;20474;-76
2022/07/18 13:32:00;;;;;;;2.40;1.37;;;;;;;;;;5053323;28;20788;-76
2022/07/18 13:34:26;;;;;;;7.30;1.77;;;;;;;;;;5052412;28;20539;-76
2022/07/18 13:36:53;;;;;;;2.97;1.50;;;;;;;;;;5052443;28;20518;-76
2022/07/18 13:39:20;;;;;;;4.27;1.63;;;;;;;;;;5052536;28;20493;-75
2022/07/18 13:41:46;;;;;;;1.40;1.13;;;;;;;;;;5053088;28;20428;-75
2022/07/18 13:44:12;;;;;;;7.77;1.40;;;;;;;;;;5050622;28;20440;-77
2022/07/18 13:46:40;;;;;;;3.10;1.70;;;;;;;;;;5052797;28;20464;-76
2022/07/18 13:49:06;;;;;;;3.00;1.40;;;;;;;;;;5052254;28;20432;-76
2022/07/18 13:51:32;;;;;;;5.30;1.57;;;;;;;;;;5052031;28;20561;-76
2022/07/18 13:53:58;;;;;;;5.63;1.93;;;;;;;;;;5051907;28;20979;-76
2022/07/18 13:56:24;;;;;;;5.30;1.50;;;;;;;;;;5052745;28;20431;-76
2022/07/18 13:58:50;;;;;;;3.23;1.60;;;;;;;;;;5051250;28;20931;-75
2022/07/18 14:01:16;;;;;;;5.20;1.80;;;;;;;;;;5040340;28;20436;-76
2022/07/18 14:03:42;;;;;;;5.00;1.77;;;;;;;;;;5031678;28;20453;-75
2022/07/18 14:06:08;;;;;;;3.37;1.57;;;;;;;;;;5031831;28;20475;-75
2022/07/18 14:08:34;;;;;;;11.67;1.83;;;;;;;;;;5031964;28;20440;-76
2022/07/18 14:11:00;;;;;;;4.90;1.97;;;;;;;;;;5032459;28;20423;-75
2022/07/18 14:13:26;;;;;;;2.47;1.63;;;;;;;;;;5029728;28;20453;-76
2022/07/18 14:15:52;;;;;;;7.40;1.60;;;;;;;;;;5031427;28;20429;-76
2022/07/18 14:18:18;;;;;;;6.37;1.87;;;;;;;;;;5042405;28;20474;-76
2022/07/18 14:20:44;;;;;;;4.23;2.00;;;;;;;;;;5050870;28;20432;-76
2022/07/18 14:23:10;;;;;;;5.30;1.83;;;;;;;;;;5051808;28;20489;-75
2022/07/18 14:25:36;;;;;;;3.83;1.60;;;;;;;;;;5051536;28;20459;-76
2022/07/18 14:28:02;;;;;;;3.93;1.80;;;;;;;;;;5051302;28;20460;-76
2022/07/18 14:30:28;;;;;;;2.90;1.87;;;;;;;;;;5051697;28;20423;-75
2022/07/18 14:32:55;;;;;;;6.10;1.97;;;;;;;;;;5051585;28;20955;-75
2022/07/18 14:35:20;;;;;;;4.00;1.70;;;;;;;;;;5050992;28;20489;-75
2022/07/18 14:37:46;;;;;;;5.07;2.10;;;;;;;;;;5051846;28;20959;-76
2022/07/18 14:40:12;;;;;;;2.70;1.80;;;;;;;;;;5049767;28;20435;-76
2022/07/18 14:42:39;;;;;;;4.17;1.50;;;;;;;;;;5052746;28;20784;-76